createdAt,value
2022-11-03T00:00:51.983Z,9.98
2022-11-03T00:01:53.862Z,9.94
2022-11-03T00:02:55.619Z,9.95
2022-11-03T00:03:57.303Z,9.86
2022-11-03T00:05:19.060Z,9.94
2022-11-03T00:06:20.708Z,9.89
2022-11-03T00:07:22.786Z,9.79
2022-11-03T00:08:24.452Z,9.89
2022-11-03T00:09:27.676Z,9.89
2022-11-03T00:10:30.898Z,9.83
2022-11-03T00:11:34.386Z,9.78
2022-11-03T00:12:36.115Z,9.77
2022-11-03T00:13:39.896Z,9.80
2022-11-03T00:14:41.723Z,9.71
2022-11-03T00:15:50.156Z,9.79
2022-11-03T00:16:52.526Z,9.78
2022-11-03T00:17:54.266Z,9.74
2022-11-03T00:18:56.053Z,9.71
2022-11-03T00:19:57.681Z,9.62
2022-11-03T00:21:02.685Z,9.63
2022-11-03T00:22:04.298Z,9.66
2022-11-03T00:23:06.073Z,9.56
2022-11-03T00:24:09.224Z,9.50
2022-11-03T00:25:11.123Z,9.59
2022-11-03T00:26:13.126Z,9.61
2022-11-03T00:27:16.405Z,9.59
2022-11-03T00:28:18.191Z,9.57
2022-11-03T00:29:19.834Z,9.49
2022-11-03T00:30:21.861Z,9.44
2022-11-03T00:31:27.291Z,9.43
2022-11-03T00:32:30.578Z,9.37
2022-11-03T00:33:33.668Z,9.33
2022-11-03T00:34:36.162Z,9.23
2022-11-03T00:35:37.729Z,9.29
2022-11-03T00:36:42.896Z,9.30
2022-11-03T00:37:44.834Z,9.27
2022-11-03T00:38:47.672Z,9.27
2022-11-03T00:39:53.566Z,9.27
2022-11-03T00:40:56.257Z,9.22
2022-11-03T00:41:57.870Z,9.29
2022-11-03T00:42:59.825Z,9.31
2022-11-03T00:44:03.189Z,9.29
2022-11-03T00:45:06.937Z,9.26
2022-11-03T00:46:09.889Z,9.22
2022-11-03T00:47:11.381Z,9.23
2022-11-03T00:48:31.789Z,9.21
2022-11-03T00:49:34.065Z,9.30
2022-11-03T00:50:35.625Z,9.23
2022-11-03T00:51:37.550Z,9.22
2022-11-03T00:52:40.179Z,9.29
2022-11-03T00:53:46.205Z,9.32
2022-11-03T00:54:52.748Z,9.35
2022-11-03T00:55:58.017Z,9.37
2022-11-03T00:56:59.674Z,9.29
2022-11-03T00:58:02.725Z,9.37
2022-11-03T00:59:06.086Z,9.36
2022-11-03T01:00:08.751Z,9.31
2022-11-03T01:01:12.840Z,9.37
2022-11-03T01:02:16.393Z,9.30
2022-11-03T01:03:18.294Z,9.24
2022-11-03T01:04:38.412Z,9.25
2022-11-03T01:06:02.819Z,9.25
2022-11-03T01:07:08.047Z,9.25
2022-11-03T01:08:09.819Z,9.35
2022-11-03T01:09:12.178Z,9.35
2022-11-03T01:10:13.830Z,9.39
2022-11-03T01:11:37.159Z,9.38
2022-11-03T01:12:39.622Z,9.34
2022-11-03T01:13:41.255Z,9.42
2022-11-03T01:14:51.933Z,9.37
2022-11-03T01:15:57.740Z,9.34
2022-11-03T01:17:00.059Z,9.27
2022-11-03T01:18:04.661Z,9.18
2022-11-03T01:19:07.262Z,9.19
2022-11-03T01:20:09.317Z,9.09
2022-11-03T01:21:11.232Z,9.10
2022-11-03T01:22:13.572Z,9.06
2022-11-03T01:23:15.320Z,9.04
2022-11-03T01:24:19.864Z,8.93
2022-11-03T01:25:22.157Z,9.03
2022-11-03T01:26:23.772Z,8.98
2022-11-03T01:27:26.155Z,8.84
2022-11-03T01:28:27.860Z,8.81
2022-11-03T01:29:29.578Z,8.76
2022-11-03T01:30:31.348Z,8.68
2022-11-03T01:31:33.748Z,8.63
2022-11-03T01:32:35.451Z,8.60
2022-11-03T01:33:37.769Z,8.55
2022-11-03T01:34:39.571Z,8.46
2022-11-03T01:35:41.618Z,8.47
2022-11-03T01:36:43.979Z,8.42
2022-11-03T01:37:47.262Z,8.41
2022-11-03T01:38:48.968Z,8.30
2022-11-03T01:39:50.499Z,8.30
2022-11-03T01:40:52.433Z,8.30
2022-11-03T01:41:54.384Z,8.36
2022-11-03T01:42:55.931Z,8.32
2022-11-03T01:44:09.374Z,8.37
2022-11-03T01:45:11.268Z,8.34
2022-11-03T01:46:27.538Z,8.26
2022-11-03T01:47:34.777Z,8.33
2022-11-03T01:48:41.742Z,8.37
2022-11-03T01:50:07.527Z,8.56
2022-11-03T01:51:13.477Z,8.50
2022-11-03T01:52:28.142Z,8.51
2022-11-03T01:53:30.436Z,8.38
2022-11-03T01:54:34.114Z,8.42
2022-11-03T01:55:40.086Z,8.53
2022-11-03T01:56:47.494Z,8.53
2022-11-03T01:58:06.027Z,8.61
2022-11-03T01:59:08.431Z,8.64
2022-11-03T02:00:11.086Z,8.64
2022-11-03T02:01:13.325Z,8.67
2022-11-03T02:02:15.329Z,8.73
2022-11-03T02:03:18.396Z,8.79
2022-11-03T02:04:29.187Z,8.60
2022-11-03T02:05:30.960Z,8.55
2022-11-03T02:06:32.743Z,8.55
2022-11-03T02:07:43.948Z,8.54
2022-11-03T02:08:54.472Z,8.40
2022-11-03T02:09:56.202Z,8.33
2022-11-03T02:10:59.076Z,8.29
2022-11-03T02:12:08.137Z,8.34
2022-11-03T02:13:19.535Z,8.36
2022-11-03T02:14:23.138Z,8.27
2022-11-03T02:15:26.097Z,8.26
2022-11-03T02:16:32.201Z,8.27
2022-11-03T02:17:36.059Z,8.21
2022-11-03T02:18:39.632Z,8.10
2022-11-03T02:19:59.742Z,8.15
2022-11-03T02:21:26.359Z,8.08
2022-11-03T02:22:54.085Z,8.05
2022-11-03T02:24:20.198Z,8.01
2022-11-03T02:25:46.623Z,8.00
2022-11-03T02:26:50.738Z,8.00
2022-11-03T02:27:52.625Z,8.01
2022-11-03T02:28:55.594Z,7.96
2022-11-03T02:29:59.561Z,7.95
2022-11-03T02:31:17.090Z,8.03
2022-11-03T02:32:23.862Z,7.99
2022-11-03T02:33:52.983Z,7.95
2022-11-03T02:35:01.663Z,7.90
2022-11-03T02:36:17.503Z,7.79
2022-11-03T02:37:27.278Z,7.82
2022-11-03T02:38:32.715Z,7.82
2022-11-03T02:39:44.332Z,7.69
2022-11-03T02:40:50.939Z,7.75
2022-11-03T02:41:56.249Z,7.69
2022-11-03T02:42:59.885Z,7.76
2022-11-03T02:44:03.048Z,7.68
2022-11-03T02:45:11.968Z,7.67
2022-11-03T02:46:21.460Z,7.72
2022-11-03T02:47:27.101Z,7.81
2022-11-03T02:48:28.788Z,7.76
2022-11-03T02:49:30.849Z,7.82
2022-11-03T02:50:34.539Z,7.74
2022-11-03T02:51:36.455Z,7.84
2022-11-03T02:52:48.489Z,7.92
2022-11-03T02:54:05.525Z,7.97
2022-11-03T02:55:45.399Z,8.10
2022-11-03T02:56:53.207Z,8.12
2022-11-03T02:58:25.665Z,8.18
2022-11-03T02:59:34.567Z,8.20
2022-11-03T03:00:51.837Z,8.31
2022-11-03T03:02:08.414Z,8.24
2022-11-03T03:03:44.302Z,8.39
2022-11-03T03:05:02.972Z,8.36
2022-11-03T03:06:14.186Z,8.37
2022-11-03T03:07:22.295Z,8.40
2022-11-03T03:08:26.997Z,8.47
2022-11-03T03:09:35.160Z,8.49
2022-11-03T03:10:42.514Z,8.52
2022-11-03T03:11:48.013Z,8.51
2022-11-03T03:12:54.625Z,8.44
2022-11-03T03:13:56.196Z,8.45
2022-11-03T03:15:00.363Z,8.51
2022-11-03T03:16:25.057Z,8.47
2022-11-03T03:17:57.230Z,8.50
2022-11-03T03:19:16.418Z,8.47
2022-11-03T03:20:18.283Z,8.50
2022-11-03T03:21:27.160Z,8.49
2022-11-03T03:22:42.774Z,8.46
2022-11-03T03:23:54.901Z,8.43
2022-11-03T03:25:25.061Z,8.46
2022-11-03T03:26:27.400Z,8.45
2022-11-03T03:27:35.860Z,8.41
2022-11-03T03:28:48.132Z,8.48
2022-11-03T03:29:54.794Z,8.52
2022-11-03T03:31:00.121Z,8.45
2022-11-03T03:32:06.624Z,8.36
2022-11-03T03:33:11.476Z,8.48
2022-11-03T03:34:33.911Z,8.46
2022-11-03T03:35:41.273Z,8.48
2022-11-03T03:36:46.338Z,8.52
2022-11-03T03:37:52.377Z,8.53
2022-11-03T03:39:02.305Z,8.45
2022-11-03T03:40:11.209Z,8.51
2022-11-03T03:41:22.381Z,8.49
2022-11-03T03:42:29.506Z,8.55
2022-11-03T03:43:39.843Z,8.48
2022-11-03T03:44:44.101Z,8.52
2022-11-03T03:45:48.583Z,8.55
2022-11-03T03:46:59.257Z,8.56
2022-11-03T03:48:01.332Z,8.45
2022-11-03T03:49:03.402Z,8.49
2022-11-03T03:50:08.419Z,8.45
2022-11-03T03:51:12.594Z,8.37
2022-11-03T03:52:15.618Z,8.26
2022-11-03T03:53:19.570Z,8.25
2022-11-03T03:54:21.211Z,8.32
2022-11-03T03:55:30.635Z,8.28
2022-11-03T03:56:45.849Z,8.20
2022-11-03T03:57:49.034Z,8.17
2022-11-03T03:58:52.644Z,8.20
2022-11-03T03:59:55.283Z,8.08
2022-11-03T04:00:57.083Z,7.99
2022-11-03T04:02:00.005Z,8.01
2022-11-03T04:03:01.991Z,8.01
2022-11-03T04:04:03.723Z,7.91
2022-11-03T04:05:07.347Z,7.92
2022-11-03T04:06:09.721Z,7.93
2022-11-03T04:07:30.439Z,7.89
2022-11-03T04:08:32.296Z,7.90
2022-11-03T04:09:35.722Z,7.89
2022-11-03T04:10:37.491Z,7.74
2022-11-03T04:11:58.287Z,7.71
2022-11-03T04:13:18.608Z,7.73
2022-11-03T04:14:38.958Z,7.69
2022-11-03T04:15:53.128Z,7.62
2022-11-03T04:17:24.462Z,7.58
2022-11-03T04:18:46.048Z,7.55
2022-11-03T04:20:06.800Z,7.52
2022-11-03T04:21:31.515Z,7.51
2022-11-03T04:22:33.747Z,7.42
2022-11-03T04:23:35.563Z,7.54
2022-11-03T04:24:37.454Z,7.54
2022-11-03T04:25:39.133Z,7.42
2022-11-03T04:26:41.056Z,7.51
2022-11-03T04:27:42.650Z,7.44
2022-11-03T04:28:45.912Z,7.46
2022-11-03T04:29:47.618Z,7.43
2022-11-03T04:30:53.295Z,7.40
2022-11-03T04:31:58.007Z,7.39
2022-11-03T04:32:59.773Z,7.43
2022-11-03T04:34:04.595Z,7.40
2022-11-03T04:35:25.221Z,7.37
2022-11-03T04:36:27.432Z,7.38
2022-11-03T04:37:29.776Z,7.39
2022-11-03T04:38:31.958Z,7.39
2022-11-03T04:39:33.658Z,7.38
2022-11-03T04:40:35.602Z,7.31
2022-11-03T04:41:39.596Z,7.31
2022-11-03T04:42:41.713Z,7.22
2022-11-03T04:43:46.598Z,7.27
2022-11-03T04:44:50.743Z,7.12
2022-11-03T04:45:53.101Z,7.25
2022-11-03T04:46:54.788Z,7.14
2022-11-03T04:48:01.757Z,7.25
2022-11-03T04:49:05.728Z,7.26
2022-11-03T04:50:15.747Z,7.24
2022-11-03T04:51:20.002Z,7.23
2022-11-03T04:52:22.598Z,7.22
2022-11-03T04:53:28.358Z,7.05
2022-11-03T04:54:31.405Z,7.03
2022-11-03T04:55:33.289Z,7.04
2022-11-03T04:56:34.888Z,7.10
2022-11-03T04:57:37.103Z,6.87
2022-11-03T04:58:38.779Z,7.06
2022-11-03T04:59:43.610Z,7.12
2022-11-03T05:00:45.462Z,7.18
2022-11-03T05:01:47.299Z,7.09
2022-11-03T05:02:54.808Z,6.74
2022-11-03T05:03:58.341Z,7.05
2022-11-03T05:05:00.261Z,7.02
2022-11-03T05:06:20.086Z,6.84
2022-11-03T05:07:31.376Z,6.96
2022-11-03T05:08:33.547Z,6.57
2022-11-03T05:09:41.767Z,6.98
2022-11-03T05:10:45.676Z,6.94
2022-11-03T05:11:49.462Z,6.97
2022-11-03T05:12:54.616Z,7.01
2022-11-03T05:14:02.654Z,6.98
2022-11-03T05:15:13.875Z,7.05
2022-11-03T05:16:17.053Z,7.05
2022-11-03T05:17:24.274Z,7.15
2022-11-03T05:18:33.036Z,7.15
2022-11-03T05:19:38.668Z,7.12
2022-11-03T05:20:49.520Z,7.13
2022-11-03T05:21:54.452Z,6.75
2022-11-03T05:22:56.102Z,7.15
2022-11-03T05:24:03.512Z,7.13
2022-11-03T05:25:41.029Z,7.12
2022-11-03T05:26:43.368Z,7.11
2022-11-03T05:27:46.321Z,7.02
2022-11-03T05:28:53.487Z,7.14
2022-11-03T05:30:00.817Z,7.15
2022-11-03T05:31:21.467Z,7.12
2022-11-03T05:32:26.522Z,7.11
2022-11-03T05:33:37.709Z,6.93
2022-11-03T05:34:56.323Z,7.05
2022-11-03T05:36:03.068Z,7.08
2022-11-03T05:37:12.090Z,7.13
2022-11-03T05:38:16.823Z,6.93
2022-11-03T05:39:21.771Z,7.22
2022-11-03T05:40:26.905Z,6.88
2022-11-03T05:41:31.039Z,6.95
2022-11-03T05:42:39.905Z,7.27
2022-11-03T05:43:43.572Z,7.27
2022-11-03T05:44:45.795Z,7.00
2022-11-03T05:45:55.497Z,7.22
2022-11-03T05:46:58.436Z,7.18
2022-11-03T05:48:02.586Z,6.90
2022-11-03T05:49:07.094Z,6.95
2022-11-03T05:50:20.567Z,7.09
2022-11-03T05:51:25.566Z,7.06
2022-11-03T05:52:28.478Z,7.12
2022-11-03T05:53:39.021Z,7.12
2022-11-03T05:54:41.855Z,7.01
2022-11-03T05:55:44.109Z,7.14
2022-11-03T05:56:45.771Z,7.01
2022-11-03T05:57:47.375Z,7.15
2022-11-03T05:58:51.122Z,7.14
2022-11-03T05:59:53.939Z,6.93
2022-11-03T06:00:59.396Z,7.11
2022-11-03T06:02:01.708Z,7.05
2022-11-03T06:03:04.562Z,7.01
2022-11-03T06:04:27.014Z,7.18
2022-11-03T06:05:31.225Z,7.14
2022-11-03T06:06:38.671Z,7.17
2022-11-03T06:07:41.484Z,7.19
2022-11-03T06:08:46.098Z,7.16
2022-11-03T06:09:51.710Z,7.21
2022-11-03T06:10:55.551Z,7.31
2022-11-03T06:12:03.603Z,7.29
2022-11-03T06:13:13.974Z,7.25
2022-11-03T06:14:24.489Z,7.40
2022-11-03T06:15:37.029Z,7.34
2022-11-03T06:16:43.143Z,7.48
2022-11-03T06:17:45.009Z,7.50
2022-11-03T06:18:47.823Z,7.48
2022-11-03T06:19:52.520Z,7.48
2022-11-03T06:20:58.259Z,7.56
2022-11-03T06:22:14.438Z,7.57
2022-11-03T06:23:18.843Z,7.60
2022-11-03T06:24:26.061Z,7.58
2022-11-03T06:25:36.324Z,7.71
2022-11-03T06:26:40.164Z,7.64
2022-11-03T06:27:42.431Z,7.62
2022-11-03T06:28:45.305Z,7.73
2022-11-03T06:29:52.347Z,7.75
2022-11-03T06:30:57.724Z,7.70
2022-11-03T06:32:01.904Z,7.43
2022-11-03T06:33:35.748Z,7.76
2022-11-03T06:34:52.417Z,7.80
2022-11-03T06:36:12.656Z,7.82
2022-11-03T06:37:20.605Z,7.82
2022-11-03T06:38:26.746Z,7.84
2022-11-03T06:39:28.753Z,7.85
2022-11-03T06:40:39.717Z,7.85
2022-11-03T06:41:41.704Z,7.90
2022-11-03T06:42:43.645Z,8.05
2022-11-03T06:43:47.682Z,8.21
2022-11-03T06:44:52.567Z,8.33
2022-11-03T06:46:06.150Z,8.40
2022-11-03T06:47:21.452Z,8.44
2022-11-03T06:48:35.498Z,8.49
2022-11-03T06:49:38.055Z,8.52
2022-11-03T06:50:44.713Z,8.55
2022-11-03T06:51:46.914Z,8.71
2022-11-03T06:52:50.095Z,8.69
2022-11-03T06:53:54.249Z,8.75
2022-11-03T06:55:10.747Z,8.70
2022-11-03T06:56:20.932Z,8.76
2022-11-03T06:57:23.691Z,8.78
2022-11-03T06:58:37.859Z,8.96
2022-11-03T06:59:43.667Z,8.88
2022-11-03T07:00:51.738Z,9.13
2022-11-03T07:01:56.181Z,9.12
2022-11-03T07:02:58.686Z,9.19
2022-11-03T07:04:04.715Z,9.21
2022-11-03T07:05:22.686Z,9.17
2022-11-03T07:06:31.288Z,9.24
2022-11-03T07:07:33.126Z,9.26
2022-11-03T07:08:41.336Z,9.26
2022-11-03T07:09:43.938Z,9.29
2022-11-03T07:10:46.868Z,9.27
2022-11-03T07:11:52.286Z,9.27
2022-11-03T07:12:56.471Z,9.33
2022-11-03T07:14:04.082Z,9.34
2022-11-03T07:15:21.794Z,9.33
2022-11-03T07:16:31.412Z,9.44
2022-11-03T07:17:34.693Z,9.44
2022-11-03T07:18:42.754Z,9.41
2022-11-03T07:19:46.060Z,9.50
2022-11-03T07:20:48.775Z,9.51
2022-11-03T07:21:53.063Z,9.52
2022-11-03T07:22:57.622Z,9.36
2022-11-03T07:24:02.547Z,9.57
2022-11-03T07:25:12.730Z,9.63
2022-11-03T07:26:15.918Z,9.67
2022-11-03T07:27:17.745Z,9.74
2022-11-03T07:28:19.853Z,9.79
2022-11-03T07:29:27.311Z,9.80
2022-11-03T07:30:35.013Z,9.76
2022-11-03T07:31:36.758Z,9.94
2022-11-03T07:32:39.590Z,9.67
2022-11-03T07:33:42.010Z,9.99
2022-11-03T07:34:46.258Z,9.76
2022-11-03T07:37:16.077Z,9.88
2022-11-03T07:38:23.183Z,9.74
2022-11-03T07:39:29.888Z,9.77
2022-11-03T07:40:35.261Z,9.79
2022-11-03T07:41:38.846Z,9.77
2022-11-03T07:42:40.696Z,10.14
2022-11-03T07:43:49.510Z,10.10
2022-11-03T07:44:54.480Z,10.08
2022-11-03T07:46:01.700Z,10.43
2022-11-03T07:47:03.425Z,10.27
2022-11-03T07:48:45.560Z,10.85
2022-11-03T07:49:47.879Z,11.09
2022-11-03T07:50:55.394Z,10.97
2022-11-03T07:52:00.041Z,11.25
2022-11-03T07:53:01.915Z,11.70
2022-11-03T07:54:28.489Z,11.83
2022-11-03T07:55:31.574Z,11.96
2022-11-03T07:56:42.243Z,11.78
2022-11-03T07:57:44.861Z,12.08
2022-11-03T07:58:50.453Z,12.07
2022-11-03T07:59:57.178Z,11.92
2022-11-03T08:01:01.554Z,11.92
2022-11-03T08:02:23.720Z,11.85
2022-11-03T08:03:33.760Z,11.97
2022-11-03T08:04:36.279Z,11.65
2022-11-03T08:05:39.795Z,11.75
2022-11-03T08:06:42.912Z,11.67
2022-11-03T08:07:45.616Z,11.76
2022-11-03T08:08:47.492Z,11.67
2022-11-03T08:09:49.558Z,11.79
2022-11-03T08:10:52.275Z,11.76
2022-11-03T08:11:54.930Z,11.95
2022-11-03T08:12:56.872Z,12.23
2022-11-03T08:13:59.059Z,12.34
2022-11-03T08:15:03.630Z,12.84
2022-11-03T08:16:05.936Z,13.08
2022-11-03T08:17:07.726Z,13.14
2022-11-03T08:18:09.389Z,13.82
2022-11-03T08:19:11.049Z,13.87
2022-11-03T08:20:12.896Z,14.38
2022-11-03T08:21:15.861Z,14.53
2022-11-03T08:22:17.883Z,14.42
2022-11-03T08:23:25.814Z,14.46
2022-11-03T08:24:28.085Z,14.67
2022-11-03T08:25:31.298Z,15.11
2022-11-03T08:26:32.882Z,15.52
2022-11-03T08:27:41.603Z,15.86
2022-11-03T08:28:44.388Z,16.30
2022-11-03T08:29:47.869Z,16.74
2022-11-03T08:30:50.132Z,16.95
2022-11-03T08:31:54.671Z,16.87
2022-11-03T08:32:56.704Z,17.25
2022-11-03T08:33:58.415Z,17.40
2022-11-03T08:35:00.028Z,17.28
2022-11-03T08:36:04.642Z,16.93
2022-11-03T08:37:06.296Z,16.91
2022-11-03T08:38:09.828Z,16.92
2022-11-03T08:39:14.079Z,16.72
2022-11-03T08:40:15.887Z,17.08
2022-11-03T08:41:18.442Z,17.03
2022-11-03T08:42:21.306Z,17.29
2022-11-03T08:43:23.693Z,17.25
2022-11-03T08:44:26.442Z,17.38
2022-11-03T08:45:28.215Z,17.34
2022-11-03T08:46:30.071Z,17.49
2022-11-03T08:47:34.281Z,17.40
2022-11-03T08:48:36.103Z,17.60
2022-11-03T08:49:38.050Z,17.64
2022-11-03T08:50:40.909Z,17.80
2022-11-03T08:51:44.660Z,17.69
2022-11-03T08:52:49.901Z,17.58
2022-11-03T08:53:55.237Z,17.61
2022-11-03T08:54:58.728Z,17.82
2022-11-03T08:56:00.675Z,17.84
2022-11-03T08:57:02.323Z,18.41
2022-11-03T08:58:04.114Z,18.06
2022-11-03T08:59:06.198Z,17.37
2022-11-03T09:00:08.612Z,17.21
2022-11-03T09:01:10.240Z,16.96
2022-11-03T09:02:11.859Z,16.78
2022-11-03T09:03:15.908Z,17.07
2022-11-03T09:04:21.055Z,16.97
2022-11-03T09:05:23.026Z,17.22
2022-11-03T09:06:24.692Z,17.45
2022-11-03T09:10:21.229Z,17.38
2022-11-03T09:11:26.174Z,16.97
2022-11-03T09:12:27.909Z,16.65
2022-11-03T09:13:29.913Z,15.75
2022-11-03T09:14:32.234Z,15.67
2022-11-03T09:15:35.936Z,15.77
2022-11-03T09:16:38.975Z,15.49
2022-11-03T09:17:44.681Z,15.31
2022-11-03T09:18:47.562Z,15.26
2022-11-03T09:19:49.911Z,15.05
2022-11-03T09:20:51.730Z,14.89
2022-11-03T09:21:53.478Z,14.77
2022-11-03T09:22:56.694Z,15.00
2022-11-03T09:24:00.349Z,14.88
2022-11-03T09:25:02.586Z,14.91
2022-11-03T09:26:06.202Z,15.07
2022-11-03T09:27:10.476Z,14.68
2022-11-03T09:28:12.344Z,14.88
2022-11-03T09:29:14.031Z,14.85
2022-11-03T09:30:16.011Z,14.81
2022-11-03T09:31:20.760Z,14.70
2022-11-03T09:32:23.672Z,14.60
2022-11-03T09:33:26.197Z,14.63
2022-11-03T09:34:29.591Z,14.59
2022-11-03T09:35:32.715Z,14.74
2022-11-03T09:36:34.954Z,14.67
2022-11-03T09:37:38.682Z,14.59
2022-11-03T09:38:41.442Z,14.58
2022-11-03T09:39:43.713Z,14.46
2022-11-03T09:40:45.620Z,14.36
2022-11-03T09:41:58.634Z,14.33
2022-11-03T09:43:01.035Z,14.61
2022-11-03T09:44:04.844Z,14.65
2022-11-03T09:45:09.051Z,14.74
2022-11-03T09:46:11.365Z,14.94
2022-11-03T09:47:23.335Z,15.04
2022-11-03T09:48:25.678Z,14.98
2022-11-03T09:49:31.638Z,15.35
2022-11-03T09:50:34.243Z,15.24
2022-11-03T09:51:37.472Z,15.34
2022-11-03T09:52:39.791Z,15.41
2022-11-03T09:53:41.974Z,15.54
2022-11-03T09:54:43.942Z,15.47
2022-11-03T09:55:45.996Z,15.65
2022-11-03T09:56:47.909Z,15.68
2022-11-03T09:57:52.124Z,15.54
2022-11-03T09:58:54.879Z,15.70
2022-11-03T09:59:57.033Z,15.84
2022-11-03T10:01:00.823Z,15.76
2022-11-03T10:02:02.667Z,15.62
2022-11-03T10:03:05.445Z,15.73
2022-11-03T10:04:12.681Z,15.43
2022-11-03T10:05:19.468Z,15.45
2022-11-03T10:06:22.399Z,15.51
2022-11-03T10:07:26.811Z,15.71
2022-11-03T10:08:32.301Z,15.59
2022-11-03T10:09:34.923Z,15.58
2022-11-03T10:10:38.308Z,15.36
2022-11-03T10:11:40.946Z,15.40
2022-11-03T10:12:43.779Z,15.34
2022-11-03T10:13:49.858Z,15.66
2022-11-03T10:14:54.655Z,15.65
2022-11-03T10:15:57.695Z,15.64
2022-11-03T10:17:01.179Z,15.77
2022-11-03T10:18:03.455Z,15.62
2022-11-03T10:19:09.328Z,15.76
2022-11-03T10:20:17.259Z,15.78
2022-11-03T10:21:26.657Z,15.94
2022-11-03T10:22:28.254Z,15.83
2022-11-03T10:23:31.087Z,15.65
2022-11-03T10:24:34.186Z,15.30
2022-11-03T10:25:42.477Z,15.56
2022-11-03T10:26:49.107Z,15.52
2022-11-03T10:27:50.888Z,15.60
2022-11-03T10:29:05.665Z,16.04
2022-11-03T10:30:11.601Z,16.20
2022-11-03T10:31:23.435Z,16.05
2022-11-03T10:32:32.039Z,16.35
2022-11-03T10:33:36.120Z,16.45
2022-11-03T10:34:39.811Z,16.58
2022-11-03T10:35:42.346Z,16.29
2022-11-03T10:36:49.550Z,16.57
2022-11-03T10:37:53.678Z,16.35
2022-11-03T10:38:55.898Z,16.60
2022-11-03T10:39:58.715Z,16.64
2022-11-03T10:41:27.142Z,16.71
2022-11-03T10:42:35.271Z,16.54
2022-11-03T10:43:39.754Z,16.28
2022-11-03T10:44:42.715Z,16.25
2022-11-03T10:45:44.672Z,16.08
2022-11-03T10:47:05.920Z,15.83
2022-11-03T10:48:10.514Z,15.93
2022-11-03T10:49:12.253Z,16.12
2022-11-03T10:50:27.386Z,16.20
2022-11-03T10:51:35.227Z,15.89
2022-11-03T10:52:38.077Z,15.98
2022-11-03T10:53:42.795Z,16.06
2022-11-03T10:54:47.632Z,16.19
2022-11-03T10:55:49.267Z,16.39
2022-11-03T10:56:52.637Z,16.43
2022-11-03T10:57:56.207Z,16.32
2022-11-03T10:59:00.573Z,16.41
2022-11-03T11:00:04.849Z,16.50
2022-11-03T11:01:14.146Z,16.42
2022-11-03T11:02:31.612Z,16.27
2022-11-03T11:03:40.199Z,16.29
2022-11-03T11:04:42.673Z,16.31
2022-11-03T11:05:47.156Z,16.20
2022-11-03T11:06:49.477Z,16.45
2022-11-03T11:07:53.089Z,16.40
2022-11-03T11:09:03.921Z,16.56
2022-11-03T11:10:12.847Z,16.74
2022-11-03T11:11:17.281Z,16.81
2022-11-03T11:12:24.954Z,16.83
2022-11-03T11:13:28.636Z,17.03
2022-11-03T11:14:30.320Z,17.27
2022-11-03T11:15:39.703Z,17.00
2022-11-03T11:16:52.806Z,17.12
2022-11-03T11:17:56.413Z,17.33
2022-11-03T11:18:58.039Z,17.46
2022-11-03T11:20:19.599Z,17.44
2022-11-03T11:21:21.490Z,17.36
2022-11-03T11:22:23.795Z,17.38
2022-11-03T11:23:32.365Z,17.04
2022-11-03T11:24:42.589Z,16.23
2022-11-03T11:26:25.721Z,15.79
2022-11-03T11:27:36.230Z,15.80
2022-11-03T11:28:43.822Z,15.70
2022-11-03T11:29:45.630Z,15.94
2022-11-03T11:30:57.627Z,15.66
2022-11-03T11:32:00.696Z,15.55
2022-11-03T11:33:22.306Z,15.34
2022-11-03T11:34:36.410Z,15.18
2022-11-03T11:35:38.193Z,15.28
2022-11-03T11:36:43.199Z,15.41
2022-11-03T11:37:45.097Z,15.40
2022-11-03T11:38:53.840Z,15.57
2022-11-03T11:39:55.638Z,15.18
2022-11-03T11:40:57.730Z,14.92
2022-11-03T11:42:17.605Z,14.89
2022-11-03T11:43:19.423Z,14.88
2022-11-03T11:44:42.558Z,15.08
2022-11-03T11:46:22.217Z,15.27
2022-11-03T11:47:25.929Z,15.42
2022-11-03T11:48:28.246Z,15.22
2022-11-03T11:49:30.203Z,14.96
2022-11-03T11:50:32.609Z,14.94
2022-11-03T11:51:35.564Z,14.83
2022-11-03T11:52:42.009Z,14.89
2022-11-03T11:53:45.329Z,14.84
2022-11-03T11:54:48.101Z,14.66
2022-11-03T11:56:03.197Z,14.36
2022-11-03T11:57:19.649Z,14.44
2022-11-03T11:58:51.562Z,14.37
2022-11-03T11:59:54.489Z,14.41
2022-11-03T12:01:13.558Z,14.46
2022-11-03T12:02:29.388Z,14.12
2022-11-03T12:03:52.564Z,14.35
2022-11-03T12:05:03.979Z,14.45
2022-11-03T12:06:06.653Z,14.31
2022-11-03T12:07:20.118Z,14.45
2022-11-03T12:08:29.676Z,14.38
2022-11-03T12:09:31.318Z,14.24
2022-11-03T12:10:33.017Z,14.34
2022-11-03T12:11:47.670Z,14.41
2022-11-03T12:12:50.715Z,14.47
2022-11-03T12:13:53.107Z,14.25
2022-11-03T12:14:54.749Z,14.42
2022-11-03T12:15:57.469Z,14.75
2022-11-03T12:17:19.723Z,14.83
2022-11-03T12:18:39.905Z,14.54
2022-11-03T12:19:54.536Z,14.94
2022-11-03T12:21:00.311Z,14.59
2022-11-03T12:22:04.666Z,14.82
2022-11-03T12:23:07.426Z,15.10
2022-11-03T12:24:32.274Z,15.26
2022-11-03T12:25:38.407Z,15.25
2022-11-03T12:26:42.762Z,15.16
2022-11-03T12:27:44.507Z,14.98
2022-11-03T12:28:46.608Z,14.95
2022-11-03T12:29:48.731Z,15.11
2022-11-03T12:30:52.805Z,15.26
2022-11-03T12:31:54.638Z,15.07
2022-11-03T12:32:58.121Z,15.09
2022-11-03T12:33:59.857Z,15.20
2022-11-03T12:35:06.645Z,15.23
2022-11-03T12:36:09.411Z,15.30
2022-11-03T12:37:12.663Z,15.45
2022-11-03T12:38:16.128Z,15.24
2022-11-03T12:39:17.668Z,15.05
2022-11-03T12:40:20.337Z,14.99
2022-11-03T12:41:21.955Z,14.71
2022-11-03T12:42:25.424Z,14.36
2022-11-03T12:43:29.194Z,14.60
2022-11-03T12:44:30.880Z,14.51
2022-11-03T12:45:32.634Z,14.50
2022-11-03T12:46:37.035Z,14.85
2022-11-03T12:47:39.155Z,14.95
2022-11-03T12:48:44.780Z,14.93
2022-11-03T12:49:46.443Z,15.14
2022-11-03T12:50:49.437Z,15.18
2022-11-03T12:51:52.161Z,15.13
2022-11-03T12:52:53.819Z,15.05
2022-11-03T12:53:55.522Z,15.25
2022-11-03T12:54:58.947Z,15.34
2022-11-03T12:56:00.823Z,15.13
2022-11-03T12:57:02.819Z,15.12
2022-11-03T12:58:06.402Z,15.32
2022-11-03T12:59:10.036Z,15.13
2022-11-03T13:00:12.938Z,14.98
2022-11-03T13:01:14.759Z,14.88
2022-11-03T13:02:17.231Z,15.01
2022-11-03T13:03:19.211Z,14.99
2022-11-03T13:04:21.256Z,15.01
2022-11-03T13:05:25.306Z,14.98
2022-11-03T13:06:29.561Z,14.96
2022-11-03T13:07:34.771Z,14.96
2022-11-03T13:08:37.529Z,14.95
2022-11-03T13:09:40.386Z,14.93
2022-11-03T13:10:43.399Z,15.02
2022-11-03T13:12:04.369Z,14.99
2022-11-03T13:13:08.986Z,15.02
2022-11-03T13:14:11.021Z,14.93
2022-11-03T13:15:13.654Z,15.01
2022-11-03T13:16:16.509Z,15.06
2022-11-03T13:17:18.183Z,14.94
2022-11-03T13:18:21.588Z,14.59
2022-11-03T13:19:23.596Z,14.75
2022-11-03T13:20:25.528Z,14.76
2022-11-03T13:21:27.415Z,14.51
2022-11-03T13:22:30.220Z,14.62
2022-11-03T13:23:32.459Z,14.47
2022-11-03T13:24:35.829Z,14.17
2022-11-03T13:25:38.025Z,14.31
2022-11-03T13:26:40.101Z,14.52
2022-11-03T13:27:42.256Z,14.58
2022-11-03T13:28:44.158Z,14.51
2022-11-03T13:29:46.289Z,14.53
2022-11-03T13:30:49.266Z,14.51
2022-11-03T13:31:50.956Z,14.59
2022-11-03T13:32:53.649Z,14.55
2022-11-03T13:33:58.912Z,14.52
2022-11-03T13:35:01.936Z,14.46
2022-11-03T13:36:03.916Z,14.67
2022-11-03T13:37:05.843Z,14.66
2022-11-03T13:38:07.547Z,14.81
2022-11-03T13:39:10.007Z,14.80
2022-11-03T13:40:35.682Z,14.71
2022-11-03T13:41:38.153Z,14.66
2022-11-03T13:42:39.951Z,14.57
2022-11-03T13:43:41.748Z,14.71
2022-11-03T13:44:43.581Z,14.96
2022-11-03T13:45:46.153Z,14.99
2022-11-03T13:46:48.590Z,15.08
2022-11-03T13:48:29.059Z,15.06
2022-11-03T13:50:34.866Z,15.00
2022-11-03T13:51:37.665Z,14.96
2022-11-03T13:52:39.586Z,14.97
2022-11-03T13:56:30.137Z,14.80
2022-11-03T14:00:18.345Z,14.83
2022-11-03T14:01:20.916Z,14.81
2022-11-03T14:05:11.276Z,14.90
2022-11-03T14:06:13.744Z,14.69
2022-11-03T14:07:17.192Z,14.82
2022-11-03T14:08:21.465Z,14.78
2022-11-03T14:09:23.735Z,14.79
2022-11-03T14:10:25.470Z,14.69
2022-11-03T14:11:46.006Z,14.73
2022-11-03T14:12:48.096Z,14.50
2022-11-03T14:13:49.771Z,14.42
2022-11-03T14:14:51.290Z,14.36
2022-11-03T14:15:53.942Z,14.12
2022-11-03T14:16:55.744Z,14.29
2022-11-03T14:17:57.484Z,14.20
2022-11-03T14:19:00.899Z,14.24
2022-11-03T14:20:07.697Z,14.16
2022-11-03T14:21:09.414Z,13.85
2022-11-03T14:22:11.543Z,13.90
2022-11-03T14:23:13.711Z,13.93
2022-11-03T14:24:15.608Z,13.90
2022-11-03T14:25:20.135Z,13.77
2022-11-03T14:26:38.684Z,13.73
2022-11-03T14:27:44.793Z,13.60
2022-11-03T14:28:46.710Z,13.72
2022-11-03T14:29:50.000Z,13.38
2022-11-03T14:30:51.649Z,13.59
2022-11-03T14:31:53.700Z,13.41
2022-11-03T14:32:59.556Z,13.53
2022-11-03T14:34:03.250Z,13.52
2022-11-03T14:35:05.909Z,13.47
2022-11-03T14:36:07.906Z,13.40
2022-11-03T14:37:11.522Z,13.53
2022-11-03T14:38:13.170Z,13.54
2022-11-03T14:39:15.970Z,13.54
2022-11-03T14:40:38.187Z,13.38